sensor_id;sensor_type;location;lat;lon;timestamp;P1;durP1;ratioP1;P2;durP2;ratioP2
56391;SDS011;42289;53.582;9.714;2022-11-15T00:00:44;47.70;;;22.90;;
56391;SDS011;42289;53.582;9.714;2022-11-15T00:03:12;47.15;;;24.02;;
56391;SDS011;42289;53.582;9.714;2022-11-15T00:05:52;43.55;;;23.48;;
56391;SDS011;42289;53.582;9.714;2022-11-15T00:08:22;47.67;;;23.90;;
56391;SDS011;42289;53.582;9.714;2022-11-15T00:10:54;44.45;;;23.30;;
56391;SDS011;42289;53.582;9.714;2022-11-15T00:13:22;46.47;;;23.77;;
56391;SDS011;42289;53.582;9.714;2022-11-15T00:15:49;44.38;;;22.92;;
56391;SDS011;42289;53.582;9.714;2022-11-15T00:18:16;50.65;;;23.25;;
56391;SDS011;42289;53.582;9.714;2022-11-15T00:20:43;45.97;;;23.23;;
56391;SDS011;42289;53.582;9.714;2022-11-15T00:23:09;45.78;;;23.42;;
56391;SDS011;42289;53.582;9.714;2022-11-15T00:25:38;49.22;;;23.58;;
56391;SDS011;42289;53.582;9.714;2022-11-15T00:28:11;47.05;;;22.98;;
56391;SDS011;42289;53.582;9.714;2022-11-15T00:30:40;43.97;;;23.02;;
56391;SDS011;42289;53.582;9.714;2022-11-15T00:33:06;44.28;;;22.45;;
56391;SDS011;42289;53.582;9.714;2022-11-15T00:35:36;44.33;;;22.00;;
56391;SDS011;42289;53.582;9.714;2022-11-15T00:38:03;45.53;;;22.95;;
56391;SDS011;42289;53.582;9.714;2022-11-15T00:40:29;47.17;;;22.00;;
56391;SDS011;42289;53.582;9.714;2022-11-15T00:42:57;40.90;;;22.02;;
56391;SDS011;42289;53.582;9.714;2022-11-15T00:45:24;45.67;;;23.42;;
56391;SDS011;42289;53.582;9.714;2022-11-15T00:47:51;43.30;;;22.55;;
56391;SDS011;42289;53.582;9.714;2022-11-15T00:50:19;42.10;;;21.67;;
56391;SDS011;42289;53.582;9.714;2022-11-15T00:52:47;41.85;;;22.60;;
56391;SDS011;42289;53.582;9.714;2022-11-15T00:55:20;43.92;;;22.50;;
56391;SDS011;42289;53.582;9.714;2022-11-15T00:57:46;40.90;;;22.15;;
56391;SDS011;42289;53.582;9.714;2022-11-15T01:00:14;41.42;;;22.58;;
56391;SDS011;42289;53.582;9.714;2022-11-15T01:02:46;38.75;;;21.13;;
56391;SDS011;42289;53.582;9.714;2022-11-15T01:05:12;40.80;;;22.45;;
56391;SDS011;42289;53.582;9.714;2022-11-15T01:07:39;41.20;;;21.25;;
56391;SDS011;42289;53.582;9.714;2022-11-15T01:10:06;39.45;;;20.88;;
56391;SDS011;42289;53.582;9.714;2022-11-15T01:12:33;38.28;;;20.70;;
56391;SDS011;42289;53.582;9.714;2022-11-15T01:14:59;39.30;;;21.30;;
56391;SDS011;42289;53.582;9.714;2022-11-15T01:17:27;40.33;;;21.33;;
56391;SDS011;42289;53.582;9.714;2022-11-15T01:19:55;40.63;;;21.50;;
56391;SDS011;42289;53.582;9.714;2022-11-15T01:22:21;39.97;;;21.15;;
56391;SDS011;42289;53.582;9.714;2022-11-15T01:24:48;39.25;;;21.08;;
56391;SDS011;42289;53.582;9.714;2022-11-15T01:27:15;40.08;;;20.45;;
56391;SDS011;42289;53.582;9.714;2022-11-15T01:29:42;41.92;;;21.25;;
56391;SDS011;42289;53.582;9.714;2022-11-15T01:32:09;40.47;;;20.73;;
56391;SDS011;42289;53.582;9.714;2022-11-15T01:34:37;41.40;;;22.13;;
56391;SDS011;42289;53.582;9.714;2022-11-15T01:37:03;38.90;;;20.45;;
56391;SDS011;42289;53.582;9.714;2022-11-15T01:39:30;40.10;;;20.98;;
56391;SDS011;42289;53.582;9.714;2022-11-15T01:41:56;40.25;;;20.58;;
56391;SDS011;42289;53.582;9.714;2022-11-15T01:44:31;45.33;;;21.05;;
56391;SDS011;42289;53.582;9.714;2022-11-15T01:47:04;41.00;;;20.73;;
56391;SDS011;42289;53.582;9.714;2022-11-15T01:49:37;37.92;;;20.80;;
56391;SDS011;42289;53.582;9.714;2022-11-15T01:52:07;39.15;;;20.15;;
56391;SDS011;42289;53.582;9.714;2022-11-15T01:54:37;37.83;;;20.13;;
56391;SDS011;42289;53.582;9.714;2022-11-15T01:57:05;38.78;;;20.77;;
56391;SDS011;42289;53.582;9.714;2022-11-15T01:59:35;41.10;;;20.38;;
56391;SDS011;42289;53.582;9.714;2022-11-15T02:02:04;40.15;;;20.60;;
56391;SDS011;42289;53.582;9.714;2022-11-15T02:04:31;39.35;;;20.55;;
56391;SDS011;42289;53.582;9.714;2022-11-15T02:07:00;38.10;;;20.52;;
56391;SDS011;42289;53.582;9.714;2022-11-15T02:09:29;36.53;;;19.50;;
56391;SDS011;42289;53.582;9.714;2022-11-15T02:11:55;39.03;;;19.83;;
56391;SDS011;42289;53.582;9.714;2022-11-15T02:14:22;35.38;;;19.05;;
56391;SDS011;42289;53.582;9.714;2022-11-15T02:16:52;35.55;;;19.63;;
56391;SDS011;42289;53.582;9.714;2022-11-15T02:19:29;37.72;;;19.15;;
56391;SDS011;42289;53.582;9.714;2022-11-15T02:22:18;36.70;;;19.50;;
56391;SDS011;42289;53.582;9.714;2022-11-15T02:25:03;36.13;;;18.95;;
56391;SDS011;42289;53.582;9.714;2022-11-15T02:27:49;38.85;;;19.35;;
56391;SDS011;42289;53.582;9.714;2022-11-15T02:30:41;37.00;;;19.50;;
56391;SDS011;42289;53.582;9.714;2022-11-15T02:33:14;36.33;;;18.67;;
56391;SDS011;42289;53.582;9.714;2022-11-15T02:35:56;36.97;;;18.00;;
56391;SDS011;42289;53.582;9.714;2022-11-15T02:38:27;36.47;;;18.38;;
56391;SDS011;42289;53.582;9.714;2022-11-15T02:40:59;35.08;;;17.52;;
56391;SDS011;42289;53.582;9.714;2022-11-15T02:43:31;36.35;;;17.35;;
56391;SDS011;42289;53.582;9.714;2022-11-15T02:46:21;34.05;;;17.42;;
56391;SDS011;42289;53.582;9.714;2022-11-15T02:49:12;34.63;;;18.20;;
56391;SDS011;42289;53.582;9.714;2022-11-15T02:51:40;34.72;;;18.80;;
56391;SDS011;42289;53.582;9.714;2022-11-15T02:54:11;35.33;;;18.13;;
56391;SDS011;42289;53.582;9.714;2022-11-15T02:56:38;33.95;;;18.63;;
56391;SDS011;42289;53.582;9.714;2022-11-15T02:59:09;36.13;;;19.10;;
56391;SDS011;42289;53.582;9.714;2022-11-15T03:01:54;33.67;;;17.67;;
56391;SDS011;42289;53.582;9.714;2022-11-15T03:04:33;35.70;;;18.35;;
56391;SDS011;42289;53.582;9.714;2022-11-15T03:07:06;37.63;;;18.92;;
56391;SDS011;42289;53.582;9.714;2022-11-15T03:09:40;34.60;;;18.13;;
56391;SDS011;42289;53.582;9.714;2022-11-15T03:12:16;33.92;;;18.02;;
56391;SDS011;42289;53.582;9.714;2022-11-15T03:14:50;34.75;;;17.33;;
56391;SDS011;42289;53.582;9.714;2022-11-15T03:17:25;31.52;;;17.83;;
56391;SDS011;42289;53.582;9.714;2022-11-15T03:19:55;35.70;;;17.95;;
56391;SDS011;42289;53.582;9.714;2022-11-15T03:22:25;34.08;;;17.20;;
56391;SDS011;42289;53.582;9.714;2022-11-15T03:24:55;34.40;;;17.75;;
56391;SDS011;42289;53.582;9.714;2022-11-15T03:27:25;31.55;;;16.85;;
56391;SDS011;42289;53.582;9.714;2022-11-15T03:29:57;32.80;;;18.00;;
56391;SDS011;42289;53.582;9.714;2022-11-15T03:32:29;30.83;;;16.27;;
56391;SDS011;42289;53.582;9.714;2022-11-15T03:35:00;30.52;;;16.52;;
56391;SDS011;42289;53.582;9.714;2022-11-15T03:37:33;33.72;;;17.38;;
56391;SDS011;42289;53.582;9.714;2022-11-15T03:40:03;31.83;;;17.38;;
56391;SDS011;42289;53.582;9.714;2022-11-15T03:42:32;31.45;;;16.73;;
56391;SDS011;42289;53.582;9.714;2022-11-15T03:45:08;33.10;;;17.20;;
56391;SDS011;42289;53.582;9.714;2022-11-15T03:47:43;31.83;;;16.63;;
56391;SDS011;42289;53.582;9.714;2022-11-15T03:50:15;29.33;;;15.63;;
56391;SDS011;42289;53.582;9.714;2022-11-15T03:52:44;29.73;;;16.45;;
56391;SDS011;42289;53.582;9.714;2022-11-15T03:55:12;30.48;;;16.27;;
56391;SDS011;42289;53.582;9.714;2022-11-15T03:57:41;30.17;;;16.02;;
56391;SDS011;42289;53.582;9.714;2022-11-15T04:00:08;30.58;;;16.02;;
56391;SDS011;42289;53.582;9.714;2022-11-15T04:02:35;31.77;;;17.27;;
56391;SDS011;42289;53.582;9.714;2022-11-15T04:05:03;34.58;;;17.52;;
56391;SDS011;42289;53.582;9.714;2022-11-15T04:07:30;30.30;;;15.77;;
56391;SDS011;42289;53.582;9.714;2022-11-15T04:09:56;31.23;;;16.35;;
56391;SDS011;42289;53.582;9.714;2022-11-15T04:12:30;29.92;;;15.60;;
56391;SDS011;42289;53.582;9.714;2022-11-15T04:14:57;30.73;;;16.33;;
56391;SDS011;42289;53.582;9.714;2022-11-15T04:17:38;31.00;;;15.93;;
56391;SDS011;42289;53.582;9.714;2022-11-15T04:20:08;27.45;;;15.43;;
56391;SDS011;42289;53.582;9.714;2022-11-15T04:22:55;29.40;;;14.90;;
56391;SDS011;42289;53.582;9.714;2022-11-15T04:25:40;27.23;;;14.90;;
56391;SDS011;42289;53.582;9.714;2022-11-15T04:28:07;27.98;;;15.07;;
56391;SDS011;42289;53.582;9.714;2022-11-15T04:30:33;29.05;;;16.25;;
56391;SDS011;42289;53.582;9.714;2022-11-15T04:33:00;28.60;;;15.73;;
56391;SDS011;42289;53.582;9.714;2022-11-15T04:35:28;26.98;;;14.45;;
56391;SDS011;42289;53.582;9.714;2022-11-15T04:37:55;26.83;;;15.05;;
56391;SDS011;42289;53.582;9.714;2022-11-15T04:40:20;27.95;;;15.23;;
56391;SDS011;42289;53.582;9.714;2022-11-15T04:42:47;27.60;;;14.75;;
56391;SDS011;42289;53.582;9.714;2022-11-15T04:45:13;30.20;;;15.07;;
56391;SDS011;42289;53.582;9.714;2022-11-15T04:47:42;30.00;;;14.98;;
56391;SDS011;42289;53.582;9.714;2022-11-15T04:50:09;27.38;;;14.65;;
56391;SDS011;42289;53.582;9.714;2022-11-15T04:52:38;25.20;;;13.63;;
56391;SDS011;42289;53.582;9.714;2022-11-15T04:55:06;28.98;;;14.20;;
56391;SDS011;42289;53.582;9.714;2022-11-15T04:57:33;29.13;;;15.15;;
56391;SDS011;42289;53.582;9.714;2022-11-15T04:59:59;28.70;;;15.10;;
56391;SDS011;42289;53.582;9.714;2022-11-15T05:02:25;26.35;;;14.55;;
56391;SDS011;42289;53.582;9.714;2022-11-15T05:05:12;26.33;;;14.85;;
56391;SDS011;42289;53.582;9.714;2022-11-15T05:07:39;28.02;;;14.02;;
56391;SDS011;42289;53.582;9.714;2022-11-15T05:10:05;28.23;;;14.25;;
56391;SDS011;42289;53.582;9.714;2022-11-15T05:12:32;26.70;;;14.95;;
56391;SDS011;42289;53.582;9.714;2022-11-15T05:14:58;26.52;;;14.30;;
56391;SDS011;42289;53.582;9.714;2022-11-15T05:17:25;28.55;;;15.15;;
56391;SDS011;42289;53.582;9.714;2022-11-15T05:19:51;29.00;;;14.95;;
56391;SDS011;42289;53.582;9.714;2022-11-15T05:22:18;26.85;;;14.50;;
56391;SDS011;42289;53.582;9.714;2022-11-15T05:24:46;28.50;;;14.98;;
56391;SDS011;42289;53.582;9.714;2022-11-15T05:27:12;27.65;;;14.93;;
56391;SDS011;42289;53.582;9.714;2022-11-15T05:29:39;25.13;;;14.73;;
56391;SDS011;42289;53.582;9.714;2022-11-15T05:32:05;25.67;;;14.80;;
56391;SDS011;42289;53.582;9.714;2022-11-15T05:34:34;24.55;;;14.48;;
56391;SDS011;42289;53.582;9.714;2022-11-15T05:37:00;25.90;;;14.50;;
56391;SDS011;42289;53.582;9.714;2022-11-15T05:39:27;25.55;;;14.07;;
56391;SDS011;42289;53.582;9.714;2022-11-15T05:41:55;25.02;;;13.75;;
56391;SDS011;42289;53.582;9.714;2022-11-15T05:44:25;26.70;;;14.55;;
56391;SDS011;42289;53.582;9.714;2022-11-15T05:46:53;25.40;;;14.30;;
56391;SDS011;42289;53.582;9.714;2022-11-15T05:49:21;25.98;;;14.38;;
56391;SDS011;42289;53.582;9.714;2022-11-15T05:51:51;25.48;;;14.63;;
56391;SDS011;42289;53.582;9.714;2022-11-15T05:54:18;24.65;;;14.18;;
56391;SDS011;42289;53.582;9.714;2022-11-15T05:56:48;29.30;;;15.57;;
56391;SDS011;42289;53.582;9.714;2022-11-15T05:59:16;25.85;;;15.07;;
56391;SDS011;42289;53.582;9.714;2022-11-15T06:01:44;26.00;;;14.82;;
56391;SDS011;42289;53.582;9.714;2022-11-15T06:04:10;27.33;;;15.30;;
56391;SDS011;42289;53.582;9.714;2022-11-15T06:06:37;26.50;;;15.32;;
56391;SDS011;42289;53.582;9.714;2022-11-15T06:09:03;27.98;;;15.98;;
56391;SDS011;42289;53.582;9.714;2022-11-15T06:11:30;28.83;;;16.45;;
56391;SDS011;42289;53.582;9.714;2022-11-15T06:13:56;28.60;;;15.43;;
56391;SDS011;42289;53.582;9.714;2022-11-15T06:16:24;29.52;;;15.95;;
56391;SDS011;42289;53.582;9.714;2022-11-15T06:18:50;30.13;;;16.77;;
56391;SDS011;42289;53.582;9.714;2022-11-15T06:21:16;32.33;;;15.90;;
56391;SDS011;42289;53.582;9.714;2022-11-15T06:23:43;28.85;;;15.80;;
56391;SDS011;42289;53.582;9.714;2022-11-15T06:26:09;33.30;;;15.60;;
56391;SDS011;42289;53.582;9.714;2022-11-15T06:28:36;26.33;;;15.30;;
56391;SDS011;42289;53.582;9.714;2022-11-15T06:31:02;28.45;;;16.00;;
56391;SDS011;42289;53.582;9.714;2022-11-15T06:33:31;29.50;;;15.27;;
56391;SDS011;42289;53.582;9.714;2022-11-15T06:35:59;28.08;;;15.23;;
56391;SDS011;42289;53.582;9.714;2022-11-15T06:38:26;29.15;;;16.13;;
56391;SDS011;42289;53.582;9.714;2022-11-15T06:40:53;29.02;;;16.10;;
56391;SDS011;42289;53.582;9.714;2022-11-15T06:43:19;28.98;;;15.60;;
56391;SDS011;42289;53.582;9.714;2022-11-15T06:45:45;29.75;;;16.35;;
56391;SDS011;42289;53.582;9.714;2022-11-15T06:48:12;29.50;;;16.27;;
56391;SDS011;42289;53.582;9.714;2022-11-15T06:50:40;28.55;;;15.90;;
56391;SDS011;42289;53.582;9.714;2022-11-15T06:53:06;33.38;;;16.33;;
56391;SDS011;42289;53.582;9.714;2022-11-15T06:55:32;28.90;;;15.48;;
56391;SDS011;42289;53.582;9.714;2022-11-15T06:57:59;32.10;;;17.58;;
56391;SDS011;42289;53.582;9.714;2022-11-15T07:00:25;28.45;;;15.57;;
56391;SDS011;42289;53.582;9.714;2022-11-15T07:02:52;28.42;;;15.27;;
56391;SDS011;42289;53.582;9.714;2022-11-15T07:05:18;29.95;;;15.50;;
56391;SDS011;42289;53.582;9.714;2022-11-15T07:07:51;27.23;;;15.45;;
56391;SDS011;42289;53.582;9.714;2022-11-15T07:10:18;26.75;;;14.95;;
56391;SDS011;42289;53.582;9.714;2022-11-15T07:12:46;27.10;;;14.95;;
56391;SDS011;42289;53.582;9.714;2022-11-15T07:15:13;24.92;;;15.05;;
56391;SDS011;42289;53.582;9.714;2022-11-15T07:17:39;27.83;;;14.85;;
56391;SDS011;42289;53.582;9.714;2022-11-15T07:20:06;25.77;;;15.07;;
56391;SDS011;42289;53.582;9.714;2022-11-15T07:22:33;27.70;;;15.02;;
56391;SDS011;42289;53.582;9.714;2022-11-15T07:25:01;30.20;;;14.95;;
56391;SDS011;42289;53.582;9.714;2022-11-15T07:27:27;27.30;;;14.90;;
56391;SDS011;42289;53.582;9.714;2022-11-15T07:29:53;24.17;;;13.70;;
56391;SDS011;42289;53.582;9.714;2022-11-15T07:32:20;30.15;;;15.82;;
56391;SDS011;42289;53.582;9.714;2022-11-15T07:34:46;27.25;;;14.38;;
56391;SDS011;42289;53.582;9.714;2022-11-15T07:37:13;24.40;;;14.48;;
56391;SDS011;42289;53.582;9.714;2022-11-15T07:39:39;28.35;;;15.05;;
56391;SDS011;42289;53.582;9.714;2022-11-15T07:42:07;28.95;;;14.52;;
56391;SDS011;42289;53.582;9.714;2022-11-15T07:44:51;24.73;;;14.40;;
56391;SDS011;42289;53.582;9.714;2022-11-15T07:47:17;28.02;;;14.70;;
56391;SDS011;42289;53.582;9.714;2022-11-15T07:49:44;25.90;;;14.95;;
56391;SDS011;42289;53.582;9.714;2022-11-15T07:52:11;29.83;;;15.05;;
56391;SDS011;42289;53.582;9.714;2022-11-15T07:54:37;24.00;;;14.10;;
56391;SDS011;42289;53.582;9.714;2022-11-15T07:57:04;26.67;;;14.05;;
56391;SDS011;42289;53.582;9.714;2022-11-15T07:59:33;27.23;;;13.45;;
56391;SDS011;42289;53.582;9.714;2022-11-15T08:02:00;25.75;;;13.80;;
56391;SDS011;42289;53.582;9.714;2022-11-15T08:04:27;25.50;;;14.32;;
56391;SDS011;42289;53.582;9.714;2022-11-15T08:06:53;26.95;;;14.80;;
56391;SDS011;42289;53.582;9.714;2022-11-15T08:09:19;26.15;;;13.88;;
56391;SDS011;42289;53.582;9.714;2022-11-15T08:11:46;27.92;;;13.82;;
56391;SDS011;42289;53.582;9.714;2022-11-15T08:14:12;34.03;;;16.35;;
56391;SDS011;42289;53.582;9.714;2022-11-15T08:16:40;24.63;;;13.68;;
56391;SDS011;42289;53.582;9.714;2022-11-15T08:19:06;30.20;;;15.73;;
56391;SDS011;42289;53.582;9.714;2022-11-15T08:21:33;26.63;;;14.98;;
56391;SDS011;42289;53.582;9.714;2022-11-15T08:24:00;26.40;;;14.20;;
56391;SDS011;42289;53.582;9.714;2022-11-15T08:26:26;23.95;;;13.85;;
56391;SDS011;42289;53.582;9.714;2022-11-15T08:28:54;23.55;;;14.10;;
56391;SDS011;42289;53.582;9.714;2022-11-15T08:31:21;27.85;;;13.48;;
56391;SDS011;42289;53.582;9.714;2022-11-15T08:33:49;25.00;;;14.35;;
56391;SDS011;42289;53.582;9.714;2022-11-15T08:36:16;26.95;;;13.63;;
56391;SDS011;42289;53.582;9.714;2022-11-15T08:38:43;27.38;;;14.32;;
56391;SDS011;42289;53.582;9.714;2022-11-15T08:41:10;22.63;;;13.55;;
56391;SDS011;42289;53.582;9.714;2022-11-15T08:43:39;22.92;;;13.20;;
56391;SDS011;42289;53.582;9.714;2022-11-15T08:46:07;24.25;;;13.07;;
56391;SDS011;42289;53.582;9.714;2022-11-15T08:48:37;24.23;;;13.80;;
56391;SDS011;42289;53.582;9.714;2022-11-15T08:51:05;23.50;;;13.38;;
56391;SDS011;42289;53.582;9.714;2022-11-15T08:53:33;23.58;;;13.75;;
56391;SDS011;42289;53.582;9.714;2022-11-15T08:55:59;22.05;;;13.20;;
56391;SDS011;42289;53.582;9.714;2022-11-15T08:58:26;22.13;;;13.65;;
56391;SDS011;42289;53.582;9.714;2022-11-15T09:00:53;24.33;;;13.20;;
56391;SDS011;42289;53.582;9.714;2022-11-15T09:03:19;23.80;;;13.98;;
56391;SDS011;42289;53.582;9.714;2022-11-15T09:05:46;22.40;;;13.07;;
56391;SDS011;42289;53.582;9.714;2022-11-15T09:08:14;22.88;;;13.10;;
56391;SDS011;42289;53.582;9.714;2022-11-15T09:10:40;20.58;;;12.63;;
56391;SDS011;42289;53.582;9.714;2022-11-15T09:13:06;25.23;;;13.77;;
56391;SDS011;42289;53.582;9.714;2022-11-15T09:15:33;19.83;;;12.85;;
56391;SDS011;42289;53.582;9.714;2022-11-15T09:17:59;24.48;;;13.32;;
56391;SDS011;42289;53.582;9.714;2022-11-15T09:20:26;23.88;;;13.38;;
56391;SDS011;42289;53.582;9.714;2022-11-15T09:22:52;24.75;;;12.77;;
56391;SDS011;42289;53.582;9.714;2022-11-15T09:25:20;21.90;;;12.98;;
56391;SDS011;42289;53.582;9.714;2022-11-15T09:27:47;21.45;;;12.52;;
56391;SDS011;42289;53.582;9.714;2022-11-15T09:30:13;24.98;;;12.57;;
56391;SDS011;42289;53.582;9.714;2022-11-15T09:32:40;20.75;;;11.93;;
56391;SDS011;42289;53.582;9.714;2022-11-15T09:35:07;19.65;;;11.85;;
56391;SDS011;42289;53.582;9.714;2022-11-15T09:37:33;21.08;;;11.75;;
56391;SDS011;42289;53.582;9.714;2022-11-15T09:40:00;19.90;;;11.68;;
56391;SDS011;42289;53.582;9.714;2022-11-15T09:42:43;17.65;;;11.90;;
56391;SDS011;42289;53.582;9.714;2022-11-15T09:45:22;22.00;;;11.98;;
56391;SDS011;42289;53.582;9.714;2022-11-15T09:48:06;21.17;;;11.95;;
56391;SDS011;42289;53.582;9.714;2022-11-15T09:50:50;19.88;;;11.75;;
56391;SDS011;42289;53.582;9.714;2022-11-15T09:53:22;18.63;;;11.93;;
56391;SDS011;42289;53.582;9.714;2022-11-15T09:55:55;21.10;;;12.15;;
56391;SDS011;42289;53.582;9.714;2022-11-15T09:58:29;19.70;;;12.13;;
56391;SDS011;42289;53.582;9.714;2022-11-15T10:01:02;20.95;;;12.48;;
56391;SDS011;42289;53.582;9.714;2022-11-15T10:03:34;22.00;;;12.10;;
56391;SDS011;42289;53.582;9.714;2022-11-15T10:06:03;20.63;;;11.23;;
56391;SDS011;42289;53.582;9.714;2022-11-15T10:08:43;20.00;;;12.10;;
56391;SDS011;42289;53.582;9.714;2022-11-15T10:11:17;22.42;;;11.90;;
56391;SDS011;42289;53.582;9.714;2022-11-15T10:13:47;24.17;;;12.15;;
56391;SDS011;42289;53.582;9.714;2022-11-15T10:16:20;22.85;;;11.88;;
56391;SDS011;42289;53.582;9.714;2022-11-15T10:18:59;20.60;;;11.60;;
56391;SDS011;42289;53.582;9.714;2022-11-15T10:24:16;18.75;;;11.98;;
56391;SDS011;42289;53.582;9.714;2022-11-15T10:26:46;23.67;;;12.43;;
56391;SDS011;42289;53.582;9.714;2022-11-15T10:29:18;22.60;;;12.13;;
56391;SDS011;42289;53.582;9.714;2022-11-15T10:31:45;21.50;;;12.90;;
56391;SDS011;42289;53.582;9.714;2022-11-15T10:34:12;22.30;;;12.30;;
56391;SDS011;42289;53.582;9.714;2022-11-15T10:36:43;24.20;;;13.10;;
56391;SDS011;42289;53.582;9.714;2022-11-15T10:39:11;21.00;;;12.43;;
56391;SDS011;42289;53.582;9.714;2022-11-15T10:41:38;22.85;;;12.57;;
56391;SDS011;42289;53.582;9.714;2022-11-15T10:44:17;23.70;;;12.77;;
56391;SDS011;42289;53.582;9.714;2022-11-15T10:47:03;24.25;;;12.32;;
56391;SDS011;42289;53.582;9.714;2022-11-15T10:49:33;20.15;;;12.60;;
56391;SDS011;42289;53.582;9.714;2022-11-15T10:52:02;20.25;;;11.70;;
56391;SDS011;42289;53.582;9.714;2022-11-15T10:54:40;22.05;;;12.90;;
56391;SDS011;42289;53.582;9.714;2022-11-15T10:57:12;21.10;;;12.45;;
56391;SDS011;42289;53.582;9.714;2022-11-15T10:59:44;22.10;;;12.30;;
56391;SDS011;42289;53.582;9.714;2022-11-15T11:02:23;21.50;;;12.00;;
56391;SDS011;42289;53.582;9.714;2022-11-15T11:05:00;20.50;;;12.40;;
56391;SDS011;42289;53.582;9.714;2022-11-15T11:07:28;22.02;;;12.57;;
56391;SDS011;42289;53.582;9.714;2022-11-15T11:09:57;25.70;;;11.82;;
56391;SDS011;42289;53.582;9.714;2022-11-15T11:12:29;20.45;;;12.15;;
56391;SDS011;42289;53.582;9.714;2022-11-15T11:14:58;22.15;;;11.48;;
56391;SDS011;42289;53.582;9.714;2022-11-15T11:17:30;22.10;;;12.13;;
56391;SDS011;42289;53.582;9.714;2022-11-15T11:20:07;18.60;;;11.30;;
56391;SDS011;42289;53.582;9.714;2022-11-15T11:22:44;22.52;;;11.98;;
56391;SDS011;42289;53.582;9.714;2022-11-15T11:25:23;21.05;;;11.30;;
56391;SDS011;42289;53.582;9.714;2022-11-15T11:28:03;19.63;;;11.15;;
56391;SDS011;42289;53.582;9.714;2022-11-15T11:30:45;18.95;;;11.02;;
56391;SDS011;42289;53.582;9.714;2022-11-15T11:33:19;19.38;;;10.57;;
56391;SDS011;42289;53.582;9.714;2022-11-15T11:35:56;17.80;;;10.95;;
56391;SDS011;42289;53.582;9.714;2022-11-15T11:38:34;18.52;;;10.05;;
56391;SDS011;42289;53.582;9.714;2022-11-15T11:41:11;18.83;;;10.73;;
56391;SDS011;42289;53.582;9.714;2022-11-15T11:43:46;18.05;;;10.13;;
56391;SDS011;42289;53.582;9.714;2022-11-15T11:46:28;15.80;;;10.13;;
56391;SDS011;42289;53.582;9.714;2022-11-15T11:49:08;17.67;;;10.65;;
56391;SDS011;42289;53.582;9.714;2022-11-15T11:54:08;18.20;;;10.18;;
56391;SDS011;42289;53.582;9.714;2022-11-15T11:56:39;14.70;;;9.45;;
56391;SDS011;42289;53.582;9.714;2022-11-15T11:59:10;18.05;;;9.95;;
56391;SDS011;42289;53.582;9.714;2022-11-15T12:01:44;17.50;;;9.27;;
56391;SDS011;42289;53.582;9.714;2022-11-15T12:04:12;20.17;;;10.05;;
56391;SDS011;42289;53.582;9.714;2022-11-15T12:06:44;19.23;;;10.25;;
56391;SDS011;42289;53.582;9.714;2022-11-15T12:09:15;18.88;;;10.95;;
56391;SDS011;42289;53.582;9.714;2022-11-15T12:11:49;17.98;;;10.88;;
56391;SDS011;42289;53.582;9.714;2022-11-15T12:14:24;17.13;;;10.38;;
56391;SDS011;42289;53.582;9.714;2022-11-15T12:16:57;22.05;;;11.90;;
56391;SDS011;42289;53.582;9.714;2022-11-15T12:19:24;16.90;;;10.90;;
56391;SDS011;42289;53.582;9.714;2022-11-15T12:21:54;20.20;;;11.10;;
56391;SDS011;42289;53.582;9.714;2022-11-15T12:24:28;19.02;;;11.20;;
56391;SDS011;42289;53.582;9.714;2022-11-15T12:27:01;18.55;;;10.50;;
56391;SDS011;42289;53.582;9.714;2022-11-15T12:29:32;19.63;;;12.30;;
56391;SDS011;42289;53.582;9.714;2022-11-15T12:32:05;21.67;;;11.77;;
56391;SDS011;42289;53.582;9.714;2022-11-15T12:34:54;22.42;;;12.13;;
56391;SDS011;42289;53.582;9.714;2022-11-15T12:40:36;19.67;;;11.60;;
56391;SDS011;42289;53.582;9.714;2022-11-15T12:46:05;19.65;;;11.77;;
56391;SDS011;42289;53.582;9.714;2022-11-15T12:57:40;16.60;;;9.90;;
56391;SDS011;42289;53.582;9.714;2022-11-15T13:03:23;19.35;;;10.77;;
56391;SDS011;42289;53.582;9.714;2022-11-15T13:06:00;21.13;;;10.52;;
56391;SDS011;42289;53.582;9.714;2022-11-15T13:08:56;17.95;;;10.88;;
56391;SDS011;42289;53.582;9.714;2022-11-15T13:11:43;18.40;;;10.30;;
56391;SDS011;42289;53.582;9.714;2022-11-15T13:20:20;15.55;;;9.30;;
56391;SDS011;42289;53.582;9.714;2022-11-15T13:22:51;16.42;;;9.57;;
56391;SDS011;42289;53.582;9.714;2022-11-15T13:25:37;16.88;;;9.88;;
56391;SDS011;42289;53.582;9.714;2022-11-15T13:28:18;15.57;;;9.70;;
56391;SDS011;42289;53.582;9.714;2022-11-15T13:30:49;14.38;;;8.68;;
56391;SDS011;42289;53.582;9.714;2022-11-15T13:33:18;13.45;;;8.90;;
56391;SDS011;42289;53.582;9.714;2022-11-15T13:35:47;15.77;;;8.93;;
56391;SDS011;42289;53.582;9.714;2022-11-15T13:38:24;14.02;;;8.07;;
56391;SDS011;42289;53.582;9.714;2022-11-15T13:40:53;15.57;;;9.05;;
56391;SDS011;42289;53.582;9.714;2022-11-15T13:43:26;15.23;;;8.73;;
56391;SDS011;42289;53.582;9.714;2022-11-15T13:46:05;15.45;;;8.48;;
56391;SDS011;42289;53.582;9.714;2022-11-15T13:48:34;15.40;;;8.50;;
56391;SDS011;42289;53.582;9.714;2022-11-15T13:51:01;14.43;;;8.63;;
56391;SDS011;42289;53.582;9.714;2022-11-15T13:53:31;14.55;;;8.02;;
56391;SDS011;42289;53.582;9.714;2022-11-15T13:56:00;14.77;;;8.68;;
56391;SDS011;42289;53.582;9.714;2022-11-15T13:58:28;13.00;;;8.07;;
56391;SDS011;42289;53.582;9.714;2022-11-15T14:00:59;15.15;;;8.65;;
56391;SDS011;42289;53.582;9.714;2022-11-15T14:03:28;14.50;;;8.85;;
56391;SDS011;42289;53.582;9.714;2022-11-15T14:06:03;14.50;;;8.52;;
56391;SDS011;42289;53.582;9.714;2022-11-15T14:08:34;17.13;;;9.02;;
56391;SDS011;42289;53.582;9.714;2022-11-15T14:16:41;18.45;;;10.23;;
56391;SDS011;42289;53.582;9.714;2022-11-15T14:19:10;15.23;;;9.60;;
56391;SDS011;42289;53.582;9.714;2022-11-15T14:21:37;15.18;;;9.38;;
56391;SDS011;42289;53.582;9.714;2022-11-15T14:24:36;15.32;;;9.55;;
56391;SDS011;42289;53.582;9.714;2022-11-15T14:27:16;16.27;;;9.32;;
56391;SDS011;42289;53.582;9.714;2022-11-15T14:29:53;16.10;;;9.52;;
56391;SDS011;42289;53.582;9.714;2022-11-15T14:32:20;16.23;;;9.60;;
56391;SDS011;42289;53.582;9.714;2022-11-15T14:34:49;16.60;;;9.82;;
56391;SDS011;42289;53.582;9.714;2022-11-15T14:37:21;19.38;;;11.20;;
56391;SDS011;42289;53.582;9.714;2022-11-15T14:39:50;16.38;;;9.25;;
56391;SDS011;42289;53.582;9.714;2022-11-15T14:42:17;17.50;;;9.85;;
56391;SDS011;42289;53.582;9.714;2022-11-15T14:44:47;18.55;;;9.75;;
56391;SDS011;42289;53.582;9.714;2022-11-15T14:47:14;17.70;;;10.35;;
56391;SDS011;42289;53.582;9.714;2022-11-15T14:49:40;16.73;;;9.77;;
56391;SDS011;42289;53.582;9.714;2022-11-15T14:52:11;16.85;;;9.93;;
56391;SDS011;42289;53.582;9.714;2022-11-15T14:54:50;16.63;;;9.68;;
56391;SDS011;42289;53.582;9.714;2022-11-15T14:57:17;15.52;;;9.15;;
56391;SDS011;42289;53.582;9.714;2022-11-15T14:59:45;20.65;;;10.15;;
56391;SDS011;42289;53.582;9.714;2022-11-15T15:02:14;19.30;;;10.35;;
56391;SDS011;42289;53.582;9.714;2022-11-15T15:04:43;18.08;;;9.98;;
56391;SDS011;42289;53.582;9.714;2022-11-15T15:07:10;18.80;;;9.88;;
56391;SDS011;42289;53.582;9.714;2022-11-15T15:09:36;16.02;;;9.45;;
56391;SDS011;42289;53.582;9.714;2022-11-15T15:12:08;18.52;;;10.00;;
56391;SDS011;42289;53.582;9.714;2022-11-15T15:14:43;20.90;;;9.88;;
56391;SDS011;42289;53.582;9.714;2022-11-15T15:17:19;14.07;;;8.88;;